Time;durP1;ratioP1;P1;durP2;ratioP2;P2;SDS_P1;SDS_P2;PMS_P1;PMS_P2;Temp;Humidity;BMP_temperature;BMP_pressure;BME280_temperature;BME280_humidity;BME280_pressure;Samples;Min_cycle;Max_cycle;Signal;HPM_P1;HPM_P2
2023/06/27 00:01:45;;;;;;;90.65;86.95;;;15.50;59.40;;;;;;5076343;28;20048;-73
2023/06/27 00:04:11;;;;;;;85.85;82.57;;;15.50;59.80;;;;;;5077412;28;20078;-73
2023/06/27 00:06:40;;;;;;;79.57;76.63;;;15.40;60.30;;;;;;5073954;28;20060;-73
2023/06/27 00:09:09;;;;;;;58.33;56.03;;;15.30;60.60;;;;;;5075669;28;20036;-73
2023/06/27 00:11:38;;;;;;;58.30;56.10;;;15.20;62.30;;;;;;5085351;28;20040;-73
2023/06/27 00:14:05;;;;;;;54.05;51.92;;;15.10;62.10;;;;;;5074979;28;20037;-73
2023/06/27 00:16:49;;;;;;;46.65;44.58;;;15.10;61.90;;;;;;5072710;28;20082;-73
2023/06/27 00:19:14;;;;;;;32.45;30.92;;;15.00;62.30;;;;;;5075556;28;20044;-73
2023/06/27 00:21:40;;;;;;;23.52;22.50;;;15.00;62.30;;;;;;5077306;28;20031;-73
2023/06/27 00:24:06;;;;;;;33.55;32.20;;;15.00;61.80;;;;;;5074181;28;20048;-73
2023/06/27 00:26:32;;;;;;;29.08;27.58;;;15.10;61.50;;;;;;5077698;28;20518;-73
2023/06/27 00:28:58;;;;;;;23.75;22.60;;;15.10;61.80;;;;;;5075715;28;20032;-73
2023/06/27 00:31:23;;;;;;;25.45;23.90;;;15.20;61.10;;;;;;5074420;28;20020;-73
2023/06/27 00:33:49;;;;;;;22.92;21.58;;;15.20;61.10;;;;;;5060181;28;20127;-73
2023/06/27 00:36:15;;;;;;;21.45;20.48;;;15.20;61.20;;;;;;5074528;28;20085;-73
2023/06/27 00:38:41;;;;;;;21.65;20.48;;;15.20;61.10;;;;;;5074809;28;20036;-73
2023/06/27 00:41:07;;;;;;;22.38;21.00;;;15.20;61.20;;;;;;5074248;28;20030;-73
2023/06/27 00:43:33;;;;;;;20.80;19.63;;;15.20;61.30;;;;;;5072243;28;20393;-73
2023/06/27 00:46:01;;;;;;;23.80;22.80;;;15.10;61.40;;;;;;5078604;28;20123;-75
2023/06/27 00:48:27;;;;;;;19.95;18.77;;;15.10;62.00;;;;;;5076157;28;20186;-73
2023/06/27 00:50:55;;;;;;;18.40;17.40;;;15.00;63.00;;;;;;5075551;28;20131;-73
2023/06/27 00:53:21;;;;;;;20.63;19.45;;;15.00;62.70;;;;;;5077867;28;20502;-73
2023/06/27 00:55:47;;;;;;;19.20;18.05;;;14.90;62.80;;;;;;5071604;28;20028;-73
2023/06/27 00:58:13;;;;;;;17.08;16.17;;;14.90;62.90;;;;;;5071792;28;20454;-73
2023/06/27 01:00:38;;;;;;;19.65;18.55;;;14.90;62.80;;;;;;5076289;28;20044;-73
2023/06/27 01:03:04;;;;;;;17.25;16.10;;;14.90;63.20;;;;;;5058841;28;20382;-72
2023/06/27 01:05:31;;;;;;;16.58;15.68;;;14.90;63.20;;;;;;5072204;28;20489;-72
2023/06/27 01:08:09;;;;;;;14.32;13.55;;;15.00;62.90;;;;;;5078240;28;20812;-72
2023/06/27 01:10:44;;;;;;;15.55;14.38;;;15.00;62.90;;;;;;5071286;28;20134;-75
2023/06/27 01:13:16;;;;;;;13.30;12.45;;;15.10;63.00;;;;;;5077396;28;20494;-75
2023/06/27 01:15:43;;;;;;;13.98;13.07;;;15.10;62.70;;;;;;5073447;28;20039;-74
2023/06/27 01:18:11;;;;;;;14.20;13.30;;;15.20;62.80;;;;;;5076177;28;20029;-73
2023/06/27 01:20:38;;;;;;;12.20;11.50;;;15.30;62.60;;;;;;5078931;28;20046;-72
2023/06/27 01:23:24;;;;;;;14.88;14.02;;;15.30;62.30;;;;;;5076909;28;20051;-75
2023/06/27 01:26:09;;;;;;;13.93;13.13;;;15.40;62.80;;;;;;5080042;28;20394;-75
2023/06/27 01:28:36;;;;;;;13.68;12.77;;;15.40;62.60;;;;;;5072568;28;20090;-72
2023/06/27 01:31:02;;;;;;;16.05;15.18;;;15.30;63.10;;;;;;5080933;28;20036;-74
2023/06/27 01:33:39;;;;;;;15.57;14.77;;;15.30;63.10;;;;;;5077116;28;20044;-72
2023/06/27 01:36:13;;;;;;;15.32;14.52;;;15.30;63.50;;;;;;5074599;28;20085;-74
2023/06/27 01:39:01;;;;;;;14.48;13.38;;;15.30;63.10;;;;;;5077409;28;20126;-75
2023/06/27 01:41:30;;;;;;;14.73;13.77;;;15.30;63.10;;;;;;5075618;28;20028;-73
2023/06/27 01:44:01;;;;;;;14.73;13.90;;;15.30;63.00;;;;;;5081515;28;20118;-74
2023/06/27 01:46:27;;;;;;;14.77;13.82;;;15.30;62.30;;;;;;5079232;28;20051;-74
2023/06/27 01:48:54;;;;;;;14.23;13.23;;;15.40;62.10;;;;;;5078911;28;20037;-75
2023/06/27 01:51:20;;;;;;;14.98;14.15;;;15.40;62.20;;;;;;5077612;28;20048;-75
2023/06/27 01:53:45;;;;;;;15.90;14.70;;;15.40;63.10;;;;;;5072871;28;20098;-74
2023/06/27 01:56:12;;;;;;;15.02;14.02;;;15.40;62.80;;;;;;5078349;28;20051;-74
2023/06/27 01:58:38;;;;;;;16.85;15.75;;;15.40;62.60;;;;;;5075193;28;20471;-74
2023/06/27 02:01:04;;;;;;;15.40;14.38;;;15.40;62.80;;;;;;5075533;28;20024;-75
2023/06/27 02:03:30;;;;;;;15.32;14.30;;;15.40;62.50;;;;;;5080840;28;20035;-75
2023/06/27 02:05:56;;;;;;;13.77;12.88;;;15.30;62.30;;;;;;5076796;28;20020;-74
2023/06/27 02:08:21;;;;;;;15.27;14.48;;;15.30;62.40;;;;;;5090767;28;20040;-74
2023/06/27 02:10:47;;;;;;;16.00;14.65;;;15.30;62.50;;;;;;5077015;28;20544;-74
2023/06/27 02:13:13;;;;;;;15.27;14.43;;;15.30;62.60;;;;;;5071329;28;20055;-74
2023/06/27 02:15:38;;;;;;;17.00;16.00;;;15.30;62.70;;;;;;5092054;28;20039;-75
2023/06/27 02:18:04;;;;;;;18.15;16.75;;;15.20;63.60;;;;;;5074665;28;20043;-74
2023/06/27 02:20:48;;;;;;;17.45;16.55;;;15.20;63.20;;;;;;5075288;28;20028;-74
2023/06/27 02:23:14;;;;;;;15.50;14.43;;;15.10;63.30;;;;;;5077375;28;20044;-74
2023/06/27 02:25:43;;;;;;;16.45;15.07;;;15.00;63.60;;;;;;5076055;28;20043;-74
2023/06/27 02:28:08;;;;;;;15.48;14.52;;;15.00;63.60;;;;;;5073596;28;20506;-74
2023/06/27 02:30:34;;;;;;;15.82;14.93;;;14.90;62.80;;;;;;5078427;28;20131;-74
2023/06/27 02:33:00;;;;;;;15.60;14.77;;;14.90;63.30;;;;;;5074305;28;20028;-74
2023/06/27 02:35:25;;;;;;;14.75;13.85;;;14.80;63.70;;;;;;5079785;28;20032;-75
2023/06/27 02:37:51;;;;;;;14.20;13.40;;;14.70;64.40;;;;;;5090407;28;20036;-74
2023/06/27 02:40:17;;;;;;;14.50;13.73;;;14.60;64.60;;;;;;5089928;28;20086;-74
2023/06/27 02:42:42;;;;;;;13.02;12.10;;;14.60;64.60;;;;;;5069401;28;20401;-75
2023/06/27 02:45:09;;;;;;;12.95;11.98;;;14.50;65.00;;;;;;5072982;28;20497;-74
2023/06/27 02:47:34;;;;;;;12.10;11.15;;;14.50;65.20;;;;;;5074209;28;20040;-74
2023/06/27 02:50:00;;;;;;;13.15;12.32;;;14.60;64.60;;;;;;5075903;28;20024;-74
2023/06/27 02:52:26;;;;;;;12.23;11.43;;;14.50;65.00;;;;;;5075370;28;20143;-74
2023/06/27 02:54:52;;;;;;;12.68;11.88;;;14.50;65.20;;;;;;5063136;28;20073;-74
2023/06/27 02:57:18;;;;;;;13.75;12.98;;;14.50;65.40;;;;;;5071839;28;20060;-74
2023/06/27 02:59:43;;;;;;;13.88;12.75;;;14.50;65.20;;;;;;5072146;28;20541;-74
2023/06/27 03:02:09;;;;;;;11.57;10.88;;;14.40;65.70;;;;;;5076161;28;20101;-74
2023/06/27 03:04:36;;;;;;;12.02;10.82;;;14.40;66.20;;;;;;5073551;28;20017;-74
2023/06/27 03:07:02;;;;;;;11.13;10.35;;;14.40;66.30;;;;;;5074701;28;20024;-74
2023/06/27 03:09:27;;;;;;;11.27;10.48;;;14.30;66.70;;;;;;5073102;28;20035;-74
2023/06/27 03:11:53;;;;;;;10.98;10.23;;;14.20;66.70;;;;;;5074657;28;20117;-74
2023/06/27 03:14:19;;;;;;;12.93;9.57;;;14.20;66.60;;;;;;5075213;28;20443;-74
2023/06/27 03:16:45;;;;;;;11.02;10.18;;;14.20;66.90;;;;;;5072002;28;20111;-74
2023/06/27 03:19:11;;;;;;;10.65;9.77;;;14.20;66.60;;;;;;5076904;28;20085;-74
2023/06/27 03:21:38;;;;;;;11.02;10.07;;;14.20;66.40;;;;;;5075157;28;20032;-74
2023/06/27 03:24:04;;;;;;;11.00;10.18;;;14.30;66.50;;;;;;5072954;28;20052;-74
2023/06/27 03:26:30;;;;;;;11.02;10.02;;;14.30;66.10;;;;;;5075412;28;20046;-75
2023/06/27 03:28:56;;;;;;;10.27;9.57;;;14.30;66.10;;;;;;5078241;28;20703;-74
2023/06/27 03:31:22;;;;;;;10.68;9.88;;;14.30;66.60;;;;;;5074532;28;20029;-74
2023/06/27 03:33:47;;;;;;;9.35;8.65;;;14.30;66.60;;;;;;5089420;28;20553;-74
2023/06/27 03:36:13;;;;;;;10.57;9.88;;;14.30;66.70;;;;;;5055497;28;20047;-74
2023/06/27 03:38:39;;;;;;;9.98;9.32;;;14.30;66.10;;;;;;5076598;28;20044;-74
2023/06/27 03:41:05;;;;;;;10.52;9.73;;;14.40;65.80;;;;;;5078162;28;20032;-74
2023/06/27 03:43:30;;;;;;;10.63;9.65;;;14.40;66.30;;;;;;5054416;28;20028;-74
2023/06/27 03:45:56;;;;;;;10.05;9.23;;;14.30;66.60;;;;;;5058670;28;20504;-74
2023/06/27 03:48:22;;;;;;;10.20;9.60;;;14.30;66.60;;;;;;5057776;28;20033;-74
2023/06/27 03:50:47;;;;;;;10.07;9.30;;;14.30;66.80;;;;;;5074236;28;20042;-75
2023/06/27 03:53:13;;;;;;;10.70;9.70;;;14.40;67.60;;;;;;5082003;28;20500;-74
2023/06/27 03:55:40;;;;;;;11.07;10.13;;;14.40;66.40;;;;;;5076354;28;20082;-74
2023/06/27 03:58:06;;;;;;;11.00;10.00;;;14.50;66.00;;;;;;5074112;28;20036;-74
2023/06/27 04:00:32;;;;;;;13.05;11.00;;;14.60;66.00;;;;;;5078580;28;20068;-74
2023/06/27 04:02:58;;;;;;;12.57;11.50;;;14.60;65.60;;;;;;5073765;28;20047;-74
2023/06/27 04:05:24;;;;;;;12.73;11.73;;;14.70;65.80;;;;;;5078399;28;20036;-74
2023/06/27 04:07:49;;;;;;;11.90;11.13;;;14.80;65.60;;;;;;5078781;28;20087;-74
2023/06/27 04:10:15;;;;;;;12.10;11.05;;;14.80;65.30;;;;;;5074692;28;20033;-74
2023/06/27 04:12:41;;;;;;;12.65;11.55;;;14.90;65.20;;;;;;5080665;28;20077;-74
2023/06/27 04:15:07;;;;;;;12.02;11.15;;;14.90;65.20;;;;;;5070622;28;20123;-74
2023/06/27 04:17:34;;;;;;;13.45;12.13;;;15.00;65.20;;;;;;5075510;28;20052;-75
2023/06/27 04:20:00;;;;;;;11.85;11.10;;;15.10;65.20;;;;;;5081751;28;20032;-74
2023/06/27 04:22:25;;;;;;;11.65;10.75;;;15.20;64.70;;;;;;5074877;28;20045;-73
2023/06/27 04:24:51;;;;;;;13.07;12.07;;;15.20;66.40;;;;;;5078728;28;20068;-73
2023/06/27 04:27:17;;;;;;;12.27;11.57;;;15.40;65.60;;;;;;5077463;28;20056;-73
2023/06/27 04:29:43;;;;;;;11.00;10.20;;;15.40;64.60;;;;;;5091409;28;20111;-74
2023/06/27 04:32:08;;;;;;;12.70;10.32;;;15.40;67.40;;;;;;5078832;28;20135;-75
2023/06/27 04:34:36;;;;;;;10.85;10.05;;;15.40;67.70;;;;;;5074664;28;20037;-75
2023/06/27 04:37:03;;;;;;;12.95;12.20;;;15.40;66.70;;;;;;5077634;28;20498;-75
2023/06/27 04:39:29;;;;;;;12.90;11.90;;;15.40;64.30;;;;;;5074756;28;20032;-75
2023/06/27 04:41:56;;;;;;;13.57;12.55;;;15.50;65.50;;;;;;5054646;28;20028;-79
2023/06/27 04:44:22;;;;;;;12.27;11.02;;;15.40;65.00;;;;;;5075683;28;20032;-79
2023/06/27 04:46:48;;;;;;;13.52;12.57;;;15.40;65.60;;;;;;5074915;28;20143;-79
2023/06/27 04:49:15;;;;;;;12.98;12.18;;;15.40;65.00;;;;;;5056759;28;20040;-81
2023/06/27 04:51:40;;;;;;;13.25;12.45;;;15.50;64.70;;;;;;5095953;28;20059;-80
2023/06/27 04:54:06;;;;;;;13.05;12.15;;;15.50;63.50;;;;;;5073608;28;20071;-78
2023/06/27 04:56:33;;;;;;;14.07;12.98;;;15.60;63.60;;;;;;5094646;28;20070;-77
2023/06/27 04:58:59;;;;;;;13.13;12.32;;;15.60;64.60;;;;;;5077993;28;20553;-81
2023/06/27 05:01:25;;;;;;;14.32;13.40;;;15.60;62.60;;;;;;5089106;28;20124;-78
2023/06/27 05:03:51;;;;;;;14.27;13.27;;;15.80;62.60;;;;;;5078916;28;20037;-79
2023/06/27 05:06:17;;;;;;;16.02;15.05;;;15.70;62.20;;;;;;5090974;28;20064;-79
2023/06/27 05:08:42;;;;;;;15.30;14.32;;;15.80;61.90;;;;;;5057776;28;20060;-81
2023/06/27 05:11:08;;;;;;;14.55;13.73;;;15.90;62.00;;;;;;5076147;28;20040;-80
2023/06/27 05:13:34;;;;;;;12.20;11.20;;;15.90;63.30;;;;;;5089930;28;20455;-81
2023/06/27 05:16:01;;;;;;;12.35;11.40;;;16.00;64.30;;;;;;5078373;28;20120;-80
2023/06/27 05:18:27;;;;;;;12.27;11.57;;;15.90;66.00;;;;;;5091685;28;20032;-79
2023/06/27 05:20:54;;;;;;;13.50;12.50;;;15.90;65.50;;;;;;5073003;28;20028;-81
2023/06/27 05:23:21;;;;;;;16.02;15.07;;;16.00;63.50;;;;;;5073925;28;20120;-78
2023/06/27 05:25:47;;;;;;;17.27;15.93;;;16.00;62.10;;;;;;5057891;28;20071;-80
2023/06/27 05:28:13;;;;;;;17.38;16.08;;;16.00;62.40;;;;;;5054202;28;20738;-81
2023/06/27 05:30:39;;;;;;;13.55;12.60;;;16.00;61.10;;;;;;5057917;28;20041;-79
2023/06/27 05:33:04;;;;;;;16.02;14.95;;;15.90;64.70;;;;;;5053348;28;20025;-70
2023/06/27 05:35:30;;;;;;;13.68;12.77;;;15.90;62.20;;;;;;5060093;28;20394;-77
2023/06/27 05:37:57;;;;;;;12.82;12.10;;;16.00;65.60;;;;;;5056236;28;20043;-79
2023/06/27 05:40:23;;;;;;;13.05;12.32;;;16.00;65.10;;;;;;5053910;28;20475;-77
2023/06/27 05:42:48;;;;;;;17.15;15.98;;;16.30;64.80;;;;;;5054127;28;20028;-78
2023/06/27 05:45:14;;;;;;;12.60;11.68;;;16.50;61.30;;;;;;5054959;28;20033;-79
2023/06/27 05:47:40;;;;;;;14.85;14.07;;;16.40;65.00;;;;;;5055019;28;20040;-77
2023/06/27 05:50:06;;;;;;;15.40;14.50;;;16.30;62.10;;;;;;5054110;28;20520;-74
2023/06/27 05:52:32;;;;;;;16.35;15.20;;;16.40;63.90;;;;;;5054129;28;20074;-74
2023/06/27 05:54:58;;;;;;;13.55;12.80;;;16.70;62.70;;;;;;5037922;28;20032;-74
2023/06/27 05:57:24;;;;;;;15.10;14.23;;;16.70;64.00;;;;;;5053702;28;20056;-73
2023/06/27 05:59:50;;;;;;;14.32;13.40;;;16.50;63.00;;;;;;5058589;28;20108;-74
2023/06/27 06:02:16;;;;;;;13.57;12.57;;;16.60;63.90;;;;;;5056551;28;20037;-73
2023/06/27 06:04:42;;;;;;;16.80;15.65;;;16.70;63.80;;;;;;5055533;28;20017;-74
2023/06/27 06:07:07;;;;;;;13.18;12.18;;;16.90;62.00;;;;;;5056822;28;20161;-73
2023/06/27 06:09:33;;;;;;;12.77;11.98;;;17.20;60.60;;;;;;5083311;28;20025;-77
2023/06/27 06:11:59;;;;;;;13.95;12.68;;;17.40;59.80;;;;;;5033012;28;20033;-79
2023/06/27 06:14:25;;;;;;;15.40;14.40;;;17.50;59.50;;;;;;5052379;28;20032;-78
2023/06/27 06:16:50;;;;;;;14.27;13.35;;;17.50;57.50;;;;;;5050324;28;20491;-78
2023/06/27 06:19:16;;;;;;;15.10;14.18;;;17.60;58.30;;;;;;5052188;28;20040;-78
2023/06/27 06:21:43;;;;;;;15.68;14.57;;;17.60;58.00;;;;;;5055069;28;20025;-80
2023/06/27 06:24:09;;;;;;;17.48;16.50;;;17.60;57.50;;;;;;5051069;28;20076;-78
2023/06/27 06:26:35;;;;;;;17.33;16.38;;;17.60;56.60;;;;;;5054425;28;20450;-77
2023/06/27 06:29:04;;;;;;;16.60;15.43;;;17.50;57.00;;;;;;5055279;28;20040;-78
2023/06/27 06:31:30;;;;;;;17.13;15.80;;;17.60;57.10;;;;;;5082713;28;20041;-79
2023/06/27 06:33:57;;;;;;;18.30;16.88;;;17.50;57.20;;;;;;5053503;28;20043;-78
2023/06/27 06:36:26;;;;;;;18.08;17.02;;;17.50;56.40;;;;;;5052406;28;20033;-78
2023/06/27 06:38:51;;;;;;;14.98;13.98;;;17.60;57.20;;;;;;5086666;28;20112;-78
2023/06/27 06:41:20;;;;;;;17.40;16.50;;;17.70;57.90;;;;;;5055472;28;20112;-78
2023/06/27 06:43:46;;;;;;;13.65;12.65;;;17.80;56.60;;;;;;5035636;28;20048;-77
2023/06/27 06:46:12;;;;;;;19.15;17.95;;;17.90;54.70;;;;;;5086883;28;20071;-77
2023/06/27 06:48:37;;;;;;;16.35;14.98;;;18.10;55.60;;;;;;5052091;28;20420;-77
2023/06/27 06:51:03;;;;;;;30.65;29.15;;;18.30;54.00;;;;;;5053041;28;20045;-77
2023/06/27 06:53:29;;;;;;;37.45;35.75;;;18.50;53.10;;;;;;5062051;28;20063;-77
2023/06/27 06:55:54;;;;;;;45.85;43.80;;;18.60;53.80;;;;;;5055971;28;20449;-75
2023/06/27 06:58:20;;;;;;;18.42;17.25;;;18.80;52.50;;;;;;5054181;28;20403;-78
2023/06/27 07:00:46;;;;;;;21.70;20.40;;;18.60;56.70;;;;;;5054783;28;20120;-76
2023/06/27 07:03:11;;;;;;;33.08;31.02;;;18.70;54.10;;;;;;5051358;28;20044;-75
2023/06/27 07:05:38;;;;;;;53.90;51.78;;;18.60;54.80;;;;;;5053637;28;20079;-75
2023/06/27 07:08:05;;;;;;;42.35;40.17;;;18.60;53.60;;;;;;5054109;28;20036;-76
2023/06/27 07:10:31;;;;;;;79.72;76.53;;;18.60;53.70;;;;;;5067861;28;20025;-78
2023/06/27 07:12:59;;;;;;;64.82;62.30;;;18.90;52.40;;;;;;5055903;28;20029;-76
2023/06/27 07:15:26;;;;;;;82.57;79.15;;;18.80;51.30;;;;;;5049938;28;20394;-76
2023/06/27 07:17:51;;;;;;;108.28;104.20;;;18.70;53.70;;;;;;5053765;28;20545;-76
2023/06/27 07:20:19;;;;;;;19.15;17.98;;;18.90;51.80;;;;;;5056901;28;20111;-75
2023/06/27 07:22:54;;;;;;;119.18;114.80;;;19.10;54.30;;;;;;5084336;28;20045;-76
2023/06/27 07:25:19;;;;;;;127.85;122.82;;;19.00;51.00;;;;;;5054366;28;20469;-75
2023/06/27 07:27:45;;;;;;;70.70;67.60;;;19.20;50.50;;;;;;5054710;28;20069;-75
2023/06/27 07:30:12;;;;;;;77.28;74.07;;;19.30;53.40;;;;;;5048920;28;20041;-76
2023/06/27 07:32:38;;;;;;;55.75;53.50;;;19.50;54.10;;;;;;5037409;28;20051;-76
2023/06/27 07:35:04;;;;;;;97.25;93.32;;;19.60;53.00;;;;;;5050920;28;20443;-75
2023/06/27 07:37:30;;;;;;;111.70;107.15;;;19.30;52.20;;;;;;5034594;28;20794;-76
2023/06/27 07:39:57;;;;;;;146.55;140.88;;;19.70;50.10;;;;;;5053986;28;20434;-76
2023/06/27 07:42:24;;;;;;;153.50;147.90;;;19.90;50.10;;;;;;5050588;28;20091;-75
2023/06/27 07:44:49;;;;;;;134.48;129.25;;;20.00;50.30;;;;;;5056750;28;20029;-75
2023/06/27 07:47:15;;;;;;;139.05;133.93;;;20.10;48.00;;;;;;5054385;28;20033;-75
2023/06/27 07:49:41;;;;;;;107.15;102.93;;;20.00;50.80;;;;;;5052198;28;20522;-75
2023/06/27 07:52:07;;;;;;;86.55;83.00;;;19.80;51.70;;;;;;5055238;28;20772;-75
2023/06/27 07:54:34;;;;;;;164.70;158.63;;;19.90;46.50;;;;;;5052283;28;20035;-75
2023/06/27 07:56:59;;;;;;;110.82;106.40;;;19.90;46.70;;;;;;5049383;28;20032;-75
2023/06/27 07:59:25;;;;;;;164.60;158.30;;;19.90;47.80;;;;;;5083771;28;20048;-75
2023/06/27 08:01:51;;;;;;;102.45;98.55;;;19.90;48.30;;;;;;5048102;28;20112;-75
2023/06/27 08:04:16;;;;;;;202.10;194.75;;;19.90;47.90;;;;;;5052543;28;20571;-75
2023/06/27 08:06:43;;;;;;;111.43;107.20;;;20.10;45.70;;;;;;5051032;28;20036;-75
2023/06/27 08:09:08;;;;;;;155.95;150.18;;;20.20;49.60;;;;;;5078299;28;20040;-76
2023/06/27 08:11:34;;;;;;;116.75;112.45;;;20.40;49.50;;;;;;5052806;28;20029;-75
2023/06/27 08:14:00;;;;;;;309.70;297.48;;;20.00;48.50;;;;;;5049899;28;20060;-76
2023/06/27 08:16:26;;;;;;;126.18;120.72;;;20.10;46.20;;;;;;5046455;28;20041;-75
2023/06/27 08:18:52;;;;;;;136.10;130.77;;;20.30;50.90;;;;;;5081468;28;20082;-75
2023/06/27 08:21:17;;;;;;;215.00;207.45;;;20.60;48.90;;;;;;5050131;28;20395;-75
2023/06/27 08:23:44;;;;;;;224.77;216.40;;;20.70;45.60;;;;;;5081720;28;20135;-75
2023/06/27 08:26:16;;;;;;;216.02;208.10;;;20.30;46.50;;;;;;5050769;28;20115;-75
2023/06/27 08:28:43;;;;;;;210.95;203.20;;;20.60;44.80;;;;;;5050547;28;20033;-75
2023/06/27 08:31:10;;;;;;;358.35;344.33;;;20.70;45.40;;;;;;5055946;28;20033;-75
2023/06/27 08:33:36;;;;;;;412.17;395.17;;;20.60;44.20;;;;;;5053337;28;20662;-75
2023/06/27 08:36:02;;;;;;;413.50;396.75;;;20.80;44.60;;;;;;5052696;28;20051;-75
2023/06/27 08:38:28;;;;;;;556.85;531.50;;;21.20;43.10;;;;;;5057620;28;20039;-75
2023/06/27 08:40:55;;;;;;;398.88;382.52;;;21.40;43.40;;;;;;5057865;28;20056;-75
2023/06/27 08:43:21;;;;;;;393.38;377.50;;;21.40;43.80;;;;;;5057489;28;20121;-74
2023/06/27 08:45:50;;;;;;;344.38;330.77;;;21.40;44.20;;;;;;5057850;28;20035;-75
2023/06/27 08:48:17;;;;;;;620.08;589.78;;;21.70;45.10;;;;;;5054817;28;20037;-75
2023/06/27 08:50:43;;;;;;;701.58;664.38;;;21.90;41.40;;;;;;5058324;28;20036;-75
2023/06/27 08:53:17;;;;;;;678.47;642.75;;;22.30;42.60;;;;;;5054133;28;20495;-75
2023/06/27 08:56:01;;;;;;;526.05;499.77;;;22.10;40.30;;;;;;5050765;28;20036;-75
2023/06/27 08:58:59;;;;;;;704.65;666.83;;;21.80;43.70;;;;;;5056675;28;20099;-75
2023/06/27 09:01:27;;;;;;;766.00;721.55;;;22.50;40.00;;;;;;5057911;28;20029;-75
2023/06/27 09:03:53;;;;;;;653.30;613.80;;;22.50;38.80;;;;;;5052105;28;20039;-75
2023/06/27 09:06:19;;;;;;;598.58;569.00;;;22.00;40.50;;;;;;5055736;28;20601;-76
2023/06/27 09:08:44;;;;;;;756.58;711.67;;;22.20;45.40;;;;;;5052207;28;20024;-76
2023/06/27 09:11:10;;;;;;;780.95;734.28;;;22.00;40.80;;;;;;5055086;28;20055;-75
2023/06/27 09:13:37;;;;;;;754.80;709.08;;;22.10;42.40;;;;;;5057054;28;20099;-75
2023/06/27 09:16:07;;;;;;;794.55;746.85;;;22.40;40.50;;;;;;5052009;28;20036;-74
2023/06/27 09:18:36;;;;;;;;;;;22.90;42.40;;;;;;5053361;28;20036;-75
2023/06/27 09:21:02;;;;;;;1999.90;999.90;;;22.60;39.10;;;;;;5058070;28;19912;-75
2023/06/27 09:23:30;;;;;;;453.13;424.73;;;22.80;39.90;;;;;;5068790;28;20545;-75
2023/06/27 09:26:09;;;;;;;794.10;745.92;;;23.10;41.60;;;;;;5075652;28;20062;-76
2023/06/27 09:28:45;;;;;;;662.87;623.00;;;23.70;40.20;;;;;;5076445;28;20020;-76
2023/06/27 09:31:14;;;;;;;1999.90;999.90;;;24.20;40.30;;;;;;5073476;28;20056;-76
2023/06/27 09:33:43;;;;;;;1098.90;592.40;;;23.90;36.40;;;;;;5057909;28;20107;-78
2023/06/27 09:36:09;;;;;;;643.53;607.13;;;23.10;37.70;;;;;;5073828;28;20222;-75
2023/06/27 09:38:35;;;;;;;721.28;677.75;;;22.70;42.50;;;;;;5073248;28;20110;-75
2023/06/27 09:41:05;;;;;;;1999.90;999.90;;;23.40;40.10;;;;;;5074952;28;20047;-75
2023/06/27 09:43:35;;;;;;;512.60;481.88;;;24.40;39.10;;;;;;5076890;28;20023;-76
2023/06/27 09:46:03;;;;;;;430.83;402.35;;;24.80;35.70;;;;;;5074374;28;20402;-75
2023/06/27 09:48:30;;;;;;;1999.90;999.90;;;24.60;39.00;;;;;;5078492;28;20402;-78
2023/06/27 09:51:00;;;;;;;1999.90;999.90;;;25.10;36.40;;;;;;5073352;28;20036;-78
2023/06/27 09:53:27;;;;;;;1999.90;999.90;;;25.90;34.40;;;;;;5078209;28;20040;-78
2023/06/27 09:56:00;;;;;;;1538.35;785.65;;;25.70;34.10;;;;;;5071013;28;20032;-77
2023/06/27 09:58:30;;;;;;;313.63;291.70;;;25.90;35.10;;;;;;5077786;28;20390;-77
2023/06/27 10:01:06;;;;;;;1999.90;999.90;;;25.10;37.00;;;;;;5091632;28;20167;-78
2023/06/27 10:03:36;;;;;;;1999.90;999.90;;;25.00;37.40;;;;;;5074650;28;20074;-78
2023/06/27 10:06:02;;;;;;;1999.90;999.90;;;24.70;35.40;;;;;;5058430;28;20787;-78
2023/06/27 10:08:28;;;;;;;1999.90;999.90;;;25.10;30.40;;;;;;5075360;28;20082;-78
2023/06/27 10:10:57;;;;;;;1999.90;999.90;;;24.70;34.00;;;;;;5074215;28;20040;-79
2023/06/27 10:13:24;;;;;;;1999.90;999.90;;;24.60;30.80;;;;;;5095709;28;20048;-78
2023/06/27 10:15:50;;;;;;;1999.90;999.90;;;24.20;31.70;;;;;;5073048;28;20973;-79
2023/06/27 10:18:15;;;;;;;1999.90;999.90;;;24.50;32.70;;;;;;5074519;28;20054;-79
2023/06/27 10:20:42;;;;;;;1999.90;999.90;;;24.60;32.40;;;;;;5074408;28;20077;-79
2023/06/27 10:23:09;;;;;;;1999.90;999.90;;;24.40;34.30;;;;;;5072535;28;20063;-78
2023/06/27 10:25:35;;;;;;;1999.90;999.90;;;23.90;31.20;;;;;;5056014;28;20029;-79
2023/06/27 10:28:08;;;;;;;1999.90;999.90;;;24.30;34.00;;;;;;5090657;28;20085;-80
2023/06/27 10:30:44;;;;;;;1999.90;999.90;;;24.20;34.70;;;;;;5091281;28;20039;-79
2023/06/27 10:33:27;;;;;;;1999.90;999.90;;;24.70;33.20;;;;;;5058277;28;20024;-79
2023/06/27 10:35:57;;;;;;;1999.90;999.90;;;24.50;32.30;;;;;;5072725;28;20490;-79
2023/06/27 10:38:23;;;;;;;1999.90;999.90;;;25.00;32.70;;;;;;5078590;28;20028;-79
2023/06/27 10:41:06;;;;;;;1999.90;999.90;;;24.60;33.10;;;;;;5074071;28;20036;-78
2023/06/27 10:43:53;;;;;;;1999.90;999.90;;;24.80;33.80;;;;;;5052937;28;20108;-78
2023/06/27 10:46:26;;;;;;;1999.90;999.90;;;24.30;34.10;;;;;;5074688;28;20379;-79
2023/06/27 10:49:04;;;;;;;1999.90;999.90;;;24.70;30.90;;;;;;5052484;28;20037;-78
2023/06/27 10:51:43;;;;;;;1999.90;999.90;;;23.80;33.00;;;;;;5057435;28;20060;-78
2023/06/27 10:54:09;;;;;;;1999.90;999.90;;;24.60;32.30;;;;;;5055455;28;20035;-78
2023/06/27 10:56:36;;;;;;;1999.90;999.90;;;25.00;32.60;;;;;;5069371;28;20039;-79
2023/06/27 10:59:03;;;;;;;1999.90;999.90;;;25.20;28.60;;;;;;5075097;28;20032;-78
2023/06/27 11:01:34;;;;;;;1999.90;999.90;;;23.80;29.90;;;;;;5076537;28;20059;-80
2023/06/27 11:04:14;;;;;;;1999.90;999.90;;;24.40;34.20;;;;;;5074262;28;20178;-81
2023/06/27 11:06:40;;;;;;;;;;;24.80;30.70;;;;;;5070857;28;20490;-80
2023/06/27 11:09:10;;;;;;;1999.90;999.90;;;24.80;29.20;;;;;;5052943;28;19908;-80
2023/06/27 11:11:37;;;;;;;1999.90;999.90;;;25.00;30.00;;;;;;5057411;28;20031;-80
2023/06/27 11:14:07;;;;;;;1999.90;999.90;;;26.30;31.00;;;;;;5073500;28;20082;-80
2023/06/27 11:16:36;;;;;;;1999.90;999.90;;;26.50;28.60;;;;;;5076899;28;20391;-80
2023/06/27 11:19:02;;;;;;;1999.90;999.90;;;25.90;28.20;;;;;;5074559;28;20036;-80
2023/06/27 11:21:30;;;;;;;1999.90;999.90;;;25.70;28.80;;;;;;5072439;28;20043;-80
2023/06/27 11:23:59;;;;;;;1999.90;999.90;;;25.50;28.20;;;;;;5079003;28;20037;-80
2023/06/27 11:26:27;;;;;;;1999.90;999.90;;;24.80;29.80;;;;;;5057273;28;20078;-80
2023/06/27 11:28:53;;;;;;;1999.90;999.90;;;24.80;30.00;;;;;;5055203;28;20029;-80
2023/06/27 11:31:19;;;;;;;1999.90;999.90;;;24.60;30.00;;;;;;5076711;28;20035;-78
2023/06/27 11:33:44;;;;;;;1999.90;999.90;;;24.50;31.50;;;;;;5087734;28;20048;-78
2023/06/27 11:36:10;;;;;;;1999.90;999.90;;;24.30;29.90;;;;;;5078491;28;20060;-78
2023/06/27 11:38:36;;;;;;;1999.90;999.90;;;24.80;29.70;;;;;;5077064;28;20087;-79
2023/06/27 11:41:02;;;;;;;1999.90;999.90;;;25.30;29.40;;;;;;5076271;28;20112;-80
2023/06/27 11:43:28;;;;;;;1999.90;999.90;;;25.30;29.50;;;;;;5082535;28;20052;-80
2023/06/27 11:45:58;;;;;;;1999.90;999.90;;;25.10;30.90;;;;;;5078268;28;20033;-80
2023/06/27 11:48:24;;;;;;;1999.90;999.90;;;25.00;29.50;;;;;;5061483;28;20040;-79
2023/06/27 11:51:06;;;;;;;1999.90;999.90;;;25.40;29.00;;;;;;5079615;28;20406;-80
2023/06/27 11:53:33;;;;;;;1999.90;999.90;;;25.40;29.80;;;;;;5073897;28;20032;-79
2023/06/27 11:55:59;;;;;;;1999.90;999.90;;;25.20;29.70;;;;;;5075203;28;20454;-79
2023/06/27 11:58:31;;;;;;;1999.90;999.90;;;25.40;31.00;;;;;;5075240;28;20044;-80
2023/06/27 12:01:02;;;;;;;1999.90;999.90;;;25.90;29.40;;;;;;5083512;28;20564;-80
2023/06/27 12:03:35;;;;;;;1999.90;999.90;;;26.30;28.20;;;;;;5077801;28;20032;-81
2023/06/27 12:06:01;;;;;;;1999.90;999.90;;;26.80;27.50;;;;;;5053301;28;20040;-81
2023/06/27 12:08:31;;;;;;;1999.90;999.90;;;26.10;26.90;;;;;;5086555;28;20033;-80
2023/06/27 12:11:00;;;;;;;1999.90;999.90;;;26.00;27.30;;;;;;5072884;28;20037;-81
2023/06/27 12:13:39;;;;;;;1999.90;999.90;;;25.40;29.00;;;;;;5074147;28;20097;-81
2023/06/27 12:16:05;;;;;;;1999.90;999.90;;;26.20;27.30;;;;;;5076078;28;20349;-81
2023/06/27 12:18:31;;;;;;;1999.90;999.90;;;26.10;27.70;;;;;;5073352;28;20029;-80
2023/06/27 12:20:59;;;;;;;1999.90;999.90;;;26.30;30.20;;;;;;5041531;28;20039;-81